Time;durP1;ratioP1;P1;durP2;ratioP2;P2;SDS_P1;SDS_P2;PMS_P1;PMS_P2;Temp;Humidity;BMP_temperature;BMP_pressure;BME280_temperature;BME280_humidity;BME280_pressure;Samples;Min_cycle;Max_cycle;Signal;HPM_P1;HPM_P2
2023/06/01 00:01:53;;;;;;;;;;;;;;;;;;5070282;28;19916;-79
2023/06/01 00:04:19;;;;;;;;;;;;;;;;;;5073704;28;19922;-79
2023/06/01 00:06:44;;;;;;;;;;;;;;;;;;5080601;28;19948;-79
2023/06/01 00:09:09;;;;;;;;;;;;;;;;;;5074824;28;19923;-79
2023/06/01 00:11:35;;;;;;;;;;;;;;;;;;5080291;28;19999;-79
2023/06/01 00:14:00;;;;;;;;;;;;;;;;;;5074614;28;19923;-79
2023/06/01 00:16:25;;;;;;;;;;;;;;;;;;5089481;28;19942;-78
2023/06/01 00:18:55;;;;;;;;;;;;;;;;;;5087948;28;19993;-78
2023/06/01 00:21:21;;;;;;;;;;;;;;;;;;5083117;28;19916;-79
2023/06/01 00:23:47;;;;;;;;;;;;;;;;;;5071922;28;19912;-79
2023/06/01 00:26:13;;;;;;;;;;;;;;;;;;5076956;28;19920;-78
2023/06/01 00:28:39;;;;;;;;;;;;;;;;;;5073834;28;20377;-79
2023/06/01 00:31:04;;;;;;;;;;;;;;;;;;5059158;28;20003;-78
2023/06/01 00:33:29;;;;;;;;;;;;;;;;;;5071074;28;19916;-78
2023/06/01 00:35:55;;;;;;;;;;;;;;;;;;5069408;28;19923;-79
2023/06/01 00:38:20;;;;;;;;;;;;;;;;;;5076352;28;20346;-78
2023/06/01 00:40:49;;;;;;;;;;;;;;;;;;5055275;28;19920;-77
2023/06/01 00:43:15;;;;;;;;;;;;;;;;;;5075209;28;19912;-78
2023/06/01 00:45:40;;;;;;;;;;;;;;;;;;5061082;28;19938;-78
2023/06/01 00:48:05;;;;;;;;;;;;;;;;;;5059493;28;19920;-78
2023/06/01 00:50:31;;;;;;;;;;;;;;;;;;5059347;28;20308;-78
2023/06/01 00:52:56;;;;;;;;;;;;;;;;;;5055911;28;19912;-78
2023/06/01 00:55:21;;;;;;;;;;;;;;;;;;5086442;28;20721;-78
2023/06/01 00:57:47;;;;;;;;;;;;;;;;;;5059102;28;20838;-78
2023/06/01 01:00:12;;;;;;;;;;;;;;;;;;5087264;28;19997;-78
2023/06/01 01:02:38;;;;;;;;;;;;;;;;;;5088269;28;20046;-78
2023/06/01 01:05:04;;;;;;;;;;;;;;;;;;5079828;28;20182;-78
2023/06/01 01:07:29;;;;;;;;;;;;;;;;;;5080761;28;19935;-78
2023/06/01 01:09:56;;;;;;;;;;;;;;;;;;5061984;28;19916;-78
2023/06/01 01:12:21;;;;;;;;;;;;;;;;;;5072327;28;20375;-79
2023/06/01 01:14:47;;;;;;;;;;;;;;;;;;5049773;28;19923;-78
2023/06/01 01:17:12;;;;;;;;;;;;;;;;;;5087487;28;20358;-78
2023/06/01 01:19:42;;;;;;;;;;;;;;;;;;5069987;28;19920;-78
2023/06/01 01:22:08;;;;;;;;;;;;;;;;;;5034306;28;20035;-78
2023/06/01 01:24:33;;;;;;;;;;;;;;;;;;5070215;28;20019;-78
2023/06/01 01:26:58;;;;;;;;;;;;;;;;;;5051808;28;19924;-78
2023/06/01 01:29:24;;;;;;;;;;;;;;;;;;5083875;28;20019;-78
2023/06/01 01:31:49;;;;;;;;;;;;;;;;;;5058998;28;19916;-78
2023/06/01 01:34:14;;;;;;;;;;;;;;;;;;5096095;28;19928;-78
2023/06/01 01:36:40;;;;;;;;;;;;;;;;;;5056792;28;19916;-78
2023/06/01 01:39:06;;;;;;;;;;;;;;;;;;5056378;28;21559;-78
2023/06/01 01:41:31;;;;;;;;;;;;;;;;;;5064204;28;19912;-79
2023/06/01 01:43:58;;;;;;;;;;;;;;;;;;5088951;28;20379;-79
2023/06/01 01:46:27;;;;;;;;;;;;;;;;;;5051615;28;20088;-78
2023/06/01 01:48:52;;;;;;;;;;;;;;;;;;5077931;28;20002;-79
2023/06/01 01:51:18;;;;;;;;;;;;;;;;;;5050484;28;19995;-78
2023/06/01 01:53:43;;;;;;;;;;;;;;;;;;5037308;28;20104;-77
2023/06/01 01:56:08;;;;;;;;;;;;;;;;;;5049934;28;19927;-78
2023/06/01 01:58:34;;;;;;;;;;;;;;;;;;5064510;28;20148;-78
2023/06/01 02:01:00;;;;;;;;;;;;;;;;;;5063174;28;20003;-79
2023/06/01 02:03:25;;;;;;;;;;;;;;;;;;5065910;28;19938;-79
2023/06/01 02:05:51;;;;;;;;;;;;;;;;;;5078422;28;19920;-79
2023/06/01 02:08:16;;;;;;;;;;;;;;;;;;5068760;28;20417;-78
2023/06/01 02:10:42;;;;;;;;;;;;;;;;;;5054405;28;19948;-78
2023/06/01 02:13:07;;;;;;;;;;;;;;;;;;5065027;28;19927;-79
2023/06/01 02:15:33;;;;;;;;;;;;;;;;;;5055232;28;19913;-80
2023/06/01 02:18:25;;;;;;;;;;;;;;;;;;5085294;28;19974;-79
2023/06/01 02:20:50;;;;;;;;;;;;;;;;;;5054135;28;19916;-77
2023/06/01 02:23:15;;;;;;;;;;;;;;;;;;5044759;28;19975;-77
2023/06/01 02:25:41;;;;;;;;;;;;;;;;;;5057200;28;19923;-80
2023/06/01 02:28:07;;;;;;;;;;;;;;;;;;5082735;28;19916;-79
2023/06/01 02:30:32;;;;;;;;;;;;;;;;;;5089652;28;19916;-78
2023/06/01 02:32:59;;;;;;;;;;;;;;;;;;5056988;28;20272;-78
2023/06/01 02:35:24;;;;;;;;;;;;;;;;;;5065871;28;19928;-79
2023/06/01 02:37:50;;;;;;;;;;;;;;;;;;5061093;28;20497;-77
2023/06/01 02:40:16;;;;;;;;;;;;;;;;;;5087558;28;19916;-78
2023/06/01 02:42:42;;;;;;;;;;;;;;;;;;5054365;28;20508;-78
2023/06/01 02:45:07;;;;;;;;;;;;;;;;;;5039704;28;19920;-78
2023/06/01 02:47:32;;;;;;;;;;;;;;;;;;5071514;28;19912;-78
2023/06/01 02:49:58;;;;;;;;;;;;;;;;;;5061181;28;20017;-77
2023/06/01 02:52:23;;;;;;;;;;;;;;;;;;5070260;28;19951;-78
2023/06/01 02:54:49;;;;;;;;;;;;;;;;;;5082599;28;19920;-79
2023/06/01 02:57:34;;;;;;;;;;;;;;;;;;5028388;28;19920;-79
2023/06/01 03:00:04;;;;;;;;;;;;;;;;;;5059334;28;19916;-79
2023/06/01 03:02:30;;;;;;;;;;;;;;;;;;5068800;28;19916;-79
2023/06/01 03:04:55;;;;;;;;;;;;;;;;;;5080445;28;19917;-78
2023/06/01 03:07:20;;;;;;;;;;;;;;;;;;5069272;28;19915;-78
2023/06/01 03:09:49;;;;;;;;;;;;;;;;;;5059419;28;21090;-78
2023/06/01 03:12:17;;;;;;;;;;;;;;;;;;5081995;28;19912;-79
2023/06/01 03:14:42;;;;;;;;;;;;;;;;;;5066507;28;19966;-78
2023/06/01 03:17:07;;;;;;;;;;;;;;;;;;5085431;28;19912;-80
2023/06/01 03:19:34;;;;;;;;;;;;;;;;;;5079231;28;19931;-78
2023/06/01 03:22:03;;;;;;;;;;;;;;;;;;5064766;28;19913;-78
2023/06/01 03:24:28;;;;;;;;;;;;;;;;;;5069937;28;19917;-78
2023/06/01 03:26:56;;;;;;;;;;;;;;;;;;5069408;28;19912;-77
2023/06/01 03:29:22;;;;;;;;;;;;;;;;;;5053351;28;19916;-78
2023/06/01 03:31:48;;;;;;;;;;;;;;;;;;5068573;28;19916;-78
2023/06/01 03:34:16;;;;;;;;;;;;;;;;;;5053977;28;19965;-79
2023/06/01 03:36:41;;;;;;;;;;;;;;;;;;5071835;28;19912;-79
2023/06/01 03:39:08;;;;;;;;;;;;;;;;;;5071885;28;19940;-79
2023/06/01 03:41:35;;;;;;;;;;;;;;;;;;5047152;28;19913;-79
2023/06/01 03:44:01;;;;;;;;;;;;;;;;;;5076029;28;19922;-79
2023/06/01 03:46:27;;;;;;;;;;;;;;;;;;5043197;28;19912;-78
2023/06/01 03:48:52;;;;;;;;;;;;;;;;;;5057209;28;19974;-79
2023/06/01 03:51:18;;;;;;;;;;;;;;;;;;5062924;28;19923;-80
2023/06/01 03:53:43;;;;;;;;;;;;;;;;;;5068404;28;19996;-80
2023/06/01 03:56:08;;;;;;;;;;;;;;;;;;5068926;28;19947;-80
2023/06/01 03:58:37;;;;;;;;;;;;;;;;;;5071923;28;19921;-79
2023/06/01 04:01:03;;;;;;;;;;;;;;;;;;5081209;28;19916;-79
2023/06/01 04:03:29;;;;;;;;;;;;;;;;;;5072164;28;19912;-80
2023/06/01 04:05:59;;;;;;;;;;;;;;;;;;5054201;28;20444;-82
2023/06/01 04:08:24;;;;;;;;;;;;;;;;;;5063465;28;19931;-80
2023/06/01 04:10:50;;;;;;;;;;;;;;;;;;5059191;28;19943;-79
2023/06/01 04:13:15;;;;;;;;;;;;;;;;;;5062718;28;20016;-78
2023/06/01 04:15:41;;;;;;;;;;;;;;;;;;5063051;28;19924;-79
2023/06/01 04:18:06;;;;;;;;;;;;;;;;;;5064935;28;20317;-80
2023/06/01 04:20:50;;;;;;;;;;;;;;;;;;5054891;28;19916;-77
2023/06/01 04:23:16;;;;;;;;;;;;;;;;;;5063745;28;19961;-79
2023/06/01 04:25:43;;;;;;;;;;;;;;;;;;5064165;28;19927;-76
2023/06/01 04:28:10;;;;;;;;;;;;;;;;;;5054634;28;19952;-78
2023/06/01 04:30:35;;;;;;;;;;;;;;;;;;5067073;28;19963;-79
2023/06/01 04:33:01;;;;;;;;;;;;;;;;;;5073700;28;19923;-79
2023/06/01 04:35:27;;;;;;;;;;;;;;;;;;5055540;28;19917;-80
2023/06/01 04:37:53;;;;;;;;;;;;;;;;;;5037639;28;19928;-80
2023/06/01 04:40:18;;;;;;;;;;;;;;;;;;5056860;28;20497;-80
2023/06/01 04:42:51;;;;;;;;;;;;;;;;;;5051749;28;20315;-77
2023/06/01 04:45:18;;;;;;;;;;;;;;;;;;5060478;28;19916;-80
2023/06/01 04:47:47;;;;;;;;;;;;;;;;;;5052944;28;20022;-81
2023/06/01 04:50:23;;;;;;;;;;;;;;;;;;5061022;28;19967;-81
2023/06/01 04:52:49;;;;;;;;;;;;;;;;;;5042471;28;20441;-82
2023/06/01 04:55:15;;;;;;;;;;;;;;;;;;5038558;28;19920;-82
2023/06/01 04:57:42;;;;;;;;;;;;;;;;;;5082502;28;19925;-80
2023/06/01 05:00:11;;;;;;;;;;;;;;;;;;5088325;28;20006;-81
2023/06/01 05:03:02;;;;;;;;;;;;;;;;;;5080845;28;19958;-82
2023/06/01 05:05:28;;;;;;;;;;;;;;;;;;5064124;28;19955;-82
2023/06/01 05:07:53;;;;;;;;;;;;;;;;;;5058875;28;19963;-81
2023/06/01 05:10:18;;;;;;;;;;;;;;;;;;5044008;28;19912;-82
2023/06/01 05:12:46;;;;;;;;;;;;;;;;;;5053179;28;20322;-80
2023/06/01 05:15:13;;;;;;;;;;;;;;;;;;5054353;28;19919;-80
2023/06/01 05:18:04;;;;;;;;;;;;;;;;;;5078484;28;20051;-81
2023/06/01 05:20:29;;;;;;;;;;;;;;;;;;5059970;28;19916;-80
2023/06/01 05:22:57;;;;;;;;;;;;;;;;;;5069274;28;19916;-82
2023/06/01 05:25:23;;;;;;;;;;;;;;;;;;5066531;28;20335;-81
2023/06/01 05:27:49;;;;;;;;;;;;;;;;;;5068731;28;19966;-80
2023/06/01 05:30:14;;;;;;;;;;;;;;;;;;5058544;28;19920;-81
2023/06/01 05:32:41;;;;;;;;;;;;;;;;;;5054310;28;20124;-83
2023/06/01 05:35:11;;;;;;;;;;;;;;;;;;5070057;28;19923;-81
2023/06/01 05:37:37;;;;;;;;;;;;;;;;;;5077254;28;19920;-81
2023/06/01 05:40:04;;;;;;;;;;;;;;;;;;5035423;28;20046;-80
2023/06/01 05:42:29;;;;;;;;;;;;;;;;;;5058668;28;19919;-82
2023/06/01 05:44:54;;;;;;;;;;;;;;;;;;5065454;28;19920;-82
2023/06/01 05:47:20;;;;;;;;;;;;;;;;;;5060378;28;19913;-80
2023/06/01 05:49:45;;;;;;;;;;;;;;;;;;5084221;28;19916;-80
2023/06/01 05:52:13;;;;;;;;;;;;;;;;;;5060008;28;19916;-80
2023/06/01 05:54:39;;;;;;;;;;;;;;;;;;5064418;28;20371;-80
2023/06/01 05:57:05;;;;;;;;;;;;;;;;;;5090991;28;19951;-81
2023/06/01 05:59:31;;;;;;;;;;;;;;;;;;5086531;28;20103;-82
2023/06/01 06:01:56;;;;;;;;;;;;;;;;;;5038465;28;19913;-82
2023/06/01 06:04:21;;;;;;;;;;;;;;;;;;5079071;28;19924;-81
2023/06/01 06:06:47;;;;;;;;;;;;;;;;;;5104996;28;19919;-81
2023/06/01 06:09:13;;;;;;;;;;;;;;;;;;5080367;28;20393;-82
2023/06/01 06:11:39;;;;;;;;;;;;;;;;;;5084147;28;20294;-81
2023/06/01 06:14:04;;;;;;;;;;;;;;;;;;5073010;28;19916;-81
2023/06/01 06:16:29;;;;;;;;;;;;;;;;;;5046120;28;20318;-82
2023/06/01 06:18:55;;;;;;;;;;;;;;;;;;5083924;28;20019;-81
2023/06/01 06:21:20;;;;;;;;;;;;;;;;;;5080656;28;19998;-80
2023/06/01 06:23:46;;;;;;;;;;;;;;;;;;5068842;28;19993;-80
2023/06/01 06:26:11;;;;;;;;;;;;;;;;;;5087323;28;19919;-80
2023/06/01 06:28:36;;;;;;;;;;;;;;;;;;5089631;28;19956;-80
2023/06/01 06:31:02;;;;;;;;;;;;;;;;;;5077514;28;19916;-79
2023/06/01 06:33:27;;;;;;;;;;;;;;;;;;5083420;28;20237;-81
2023/06/01 06:35:52;;;;;;;;;;;;;;;;;;5079988;28;19913;-80
2023/06/01 06:38:18;;;;;;;;;;;;;;;;;;5083544;28;20011;-81
2023/06/01 06:40:43;;;;;;;;;;;;;;;;;;5089563;28;19917;-79
2023/06/01 06:43:08;;;;;;;;;;;;;;;;;;5067868;28;20371;-79
2023/06/01 06:45:34;;;;;;;;;;;;;;;;;;5076827;28;20351;-80
2023/06/01 06:47:59;;;;;;;;;;;;;;;;;;5074468;28;19916;-83
2023/06/01 06:50:25;;;;;;;;;;;;;;;;;;5079765;28;19924;-82
2023/06/01 06:52:50;;;;;;;;;;;;;;;;;;5096824;27;19938;-82
2023/06/01 06:55:15;;;;;;;;;;;;;;;;;;5085387;28;20082;-79
2023/06/01 06:57:41;;;;;;;;;;;;;;;;;;5074879;28;19973;-81
2023/06/01 07:00:06;;;;;;;;;;;;;;;;;;5075884;28;19924;-81
2023/06/01 07:02:31;;;;;;;;;;;;;;;;;;5087596;28;20410;-82
2023/06/01 07:04:57;;;;;;;;;;;;;;;;;;5073156;28;19920;-81
2023/06/01 07:07:22;;;;;;;;;;;;;;;;;;5085559;28;19919;-81
2023/06/01 07:09:47;;;;;;;;;;;;;;;;;;5081417;28;19955;-81
2023/06/01 07:12:13;;;;;;;;;;;;;;;;;;5085338;28;19912;-81
2023/06/01 07:14:39;;;;;;;;;;;;;;;;;;5078160;28;19923;-82
2023/06/01 07:17:05;;;;;;;;;;;;;;;;;;5070711;28;20053;-82
2023/06/01 07:19:32;;;;;;;;;;;;;;;;;;5083210;28;20310;-81
2023/06/01 07:21:58;;;;;;;;;;;;;;;;;;5074658;28;19951;-82
2023/06/01 07:24:25;;;;;;;;;;;;;;;;;;5079198;28;19951;-81
2023/06/01 07:26:51;;;;;;;;;;;;;;;;;;5065216;28;20329;-81
2023/06/01 07:29:16;;;;;;;;;;;;;;;;;;5075772;28;19977;-80
2023/06/01 07:31:41;;;;;;;;;;;;;;;;;;5074034;28;19948;-80
2023/06/01 07:34:07;;;;;;;;;;;;;;;;;;5087378;28;19927;-82
2023/06/01 07:36:36;;;;;;;;;;;;;;;;;;5085552;28;21528;-82
2023/06/01 07:39:02;;;;;;;;;;;;;;;;;;5079503;28;19935;-82
2023/06/01 07:41:27;;;;;;;;;;;;;;;;;;5077315;28;19913;-82
2023/06/01 07:43:53;;;;;;;;;;;;;;;;;;5073195;28;20409;-82
2023/06/01 07:46:18;;;;;;;;;;;;;;;;;;5073033;28;19990;-80
2023/06/01 07:48:44;;;;;;;;;;;;;;;;;;5094320;28;20345;-81
2023/06/01 07:51:09;;;;;;;;;;;;;;;;;;5079539;28;19944;-80
2023/06/01 07:53:35;;;;;;;;;;;;;;;;;;5086988;28;19916;-82
2023/06/01 07:56:01;;;;;;;;;;;;;;;;;;5077762;28;20398;-81
2023/06/01 07:58:26;;;;;;;;;;;;;;;;;;5080799;28;20010;-81
2023/06/01 08:00:52;;;;;;;;;;;;;;;;;;5072055;28;19912;-81
2023/06/01 08:03:17;;;;;;;;;;;;;;;;;;5078222;28;20321;-80
2023/06/01 08:05:42;;;;;;;;;;;;;;;;;;5067295;28;20340;-82
2023/06/01 08:08:08;;;;;;;;;;;;;;;;;;5088870;28;20280;-81
2023/06/01 08:10:34;;;;;;;;;;;;;;;;;;5077047;28;19916;-82
2023/06/01 08:12:59;;;;;;;;;;;;;;;;;;5078855;28;19924;-82
2023/06/01 08:15:26;;;;;;;;;;;;;;;;;;5075000;28;20028;-82
2023/06/01 08:18:19;;;;;;;;;;;;;;;;;;5084716;28;20385;-82
2023/06/01 08:20:45;;;;;;;;;;;;;;;;;;5059738;28;19966;-82
2023/06/01 08:23:10;;;;;;;;;;;;;;;;;;5084404;28;19912;-81
2023/06/01 08:25:36;;;;;;;;;;;;;;;;;;5083111;28;20303;-80
2023/06/01 08:28:01;;;;;;;;;;;;;;;;;;5081895;28;20383;-81
2023/06/01 08:30:27;;;;;;;;;;;;;;;;;;5078059;28;19916;-82
2023/06/01 08:32:52;;;;;;;;;;;;;;;;;;5074054;28;19912;-81
2023/06/01 08:35:19;;;;;;;;;;;;;;;;;;5062705;28;19916;-81
2023/06/01 08:37:44;;;;;;;;;;;;;;;;;;5077258;28;19955;-81
2023/06/01 08:40:15;;;;;;;;;;;;;;;;;;5075488;28;20230;-83
2023/06/01 08:42:41;;;;;;;;;;;;;;;;;;5076885;28;19950;-81
2023/06/01 08:45:06;;;;;;;;;;;;;;;;;;5096416;28;19959;-82
2023/06/01 08:47:31;;;;;;;;;;;;;;;;;;5077442;28;19916;-82
2023/06/01 08:49:57;;;;;;;;;;;;;;;;;;5078721;28;19919;-80
2023/06/01 08:52:22;;;;;;;;;;;;;;;;;;5078087;28;19923;-84
2023/06/01 08:54:47;;;;;;;;;;;;;;;;;;5062316;28;19920;-83
2023/06/01 08:57:13;;;;;;;;;;;;;;;;;;5079961;28;20034;-82
2023/06/01 08:59:39;;;;;;;;;;;;;;;;;;5078719;28;20015;-82
2023/06/01 09:02:04;;;;;;;;;;;;;;;;;;5055860;28;20342;-81
2023/06/01 09:04:30;;;;;;;;;;;;;;;;;;5050544;28;20007;-82
2023/06/01 09:06:56;;;;;;;;;;;;;;;;;;5087830;28;19916;-84
2023/06/01 09:09:21;;;;;;;;;;;;;;;;;;5088011;28;19935;-83
2023/06/01 09:11:47;;;;;;;;;;;;;;;;;;5063759;28;19916;-81
2023/06/01 09:14:12;;;;;;;;;;;;;;;;;;5088338;28;20341;-81
2023/06/01 09:16:37;;;;;;;;;;;;;;;;;;5067310;28;20362;-80
2023/06/01 09:19:03;;;;;;;;;;;;;;;;;;5067422;28;19922;-81
2023/06/01 09:21:28;;;;;;;;;;;;;;;;;;5080413;28;20299;-82
2023/06/01 09:23:54;;;;;;;;;;;;;;;;;;5065672;28;22998;-82
2023/06/01 09:26:20;;;;;;;;;;;;;;;;;;5063447;28;19944;-80
2023/06/01 09:28:45;;;;;;;;;;;;;;;;;;5083160;28;20438;-81
2023/06/01 09:31:12;;;;;;;;;;;;;;;;;;5064759;28;19916;-82
2023/06/01 09:33:37;;;;;;;;;;;;;;;;;;5064380;28;19920;-82
2023/06/01 09:36:02;;;;;;;;;;;;;;;;;;5066316;28;19917;-83
2023/06/01 09:38:28;;;;;;;;;;;;;;;;;;5085698;28;19921;-83
2023/06/01 09:40:53;;;;;;;;;;;;;;;;;;5082441;28;19924;-84
2023/06/01 09:43:19;;;;;;;;;;;;;;;;;;5053954;28;20018;-83
2023/06/01 09:45:45;;;;;;;;;;;;;;;;;;5056544;28;19920;-82
2023/06/01 09:48:10;;;;;;;;;;;;;;;;;;5071895;28;19917;-83
2023/06/01 09:50:35;;;;;;;;;;;;;;;;;;5068469;28;20314;-82
2023/06/01 09:53:01;;;;;;;;;;;;;;;;;;5076911;28;19921;-84
2023/06/01 09:55:26;;;;;;;;;;;;;;;;;;5081226;28;19920;-83
2023/06/01 09:57:51;;;;;;;;;;;;;;;;;;5056933;28;19912;-83
2023/06/01 10:00:17;;;;;;;;;;;;;;;;;;5084481;28;20637;-82
2023/06/01 10:02:42;;;;;;;;;;;;;;;;;;5088986;28;20006;-81
2023/06/01 10:05:08;;;;;;;;;;;;;;;;;;5088458;28;19998;-82
2023/06/01 10:07:33;;;;;;;;;;;;;;;;;;5075013;28;19966;-82
2023/06/01 10:09:59;;;;;;;;;;;;;;;;;;5054261;28;19916;-82
2023/06/01 10:12:24;;;;;;;;;;;;;;;;;;5076343;28;20002;-83
2023/06/01 10:14:49;;;;;;;;;;;;;;;;;;5074966;28;19956;-81
2023/06/01 10:17:16;;;;;;;;;;;;;;;;;;5079171;28;19912;-80
2023/06/01 10:19:41;;;;;;;;;;;;;;;;;;5075363;28;19920;-82
2023/06/01 10:22:06;;;;;;;;;;;;;;;;;;5054169;28;20015;-82
2023/06/01 10:24:32;;;;;;;;;;;;;;;;;;5087331;28;19916;-82
2023/06/01 10:26:57;;;;;;;;;;;;;;;;;;5077427;28;19912;-82
2023/06/01 10:29:23;;;;;;;;;;;;;;;;;;5079411;28;19923;-82
2023/06/01 10:31:48;;;;;;;;;;;;;;;;;;5090634;28;20390;-83
2023/06/01 10:34:14;;;;;;;;;;;;;;;;;;5071733;28;19973;-81
2023/06/01 10:36:39;;;;;;;;;;;;;;;;;;5056107;28;20406;-81
2023/06/01 10:39:04;;;;;;;;;;;;;;;;;;5091442;28;20417;-82
2023/06/01 10:41:30;;;;;;;;;;;;;;;;;;5086729;28;20053;-81
2023/06/01 10:43:55;;;;;;;;;;;;;;;;;;5086626;28;19916;-80
2023/06/01 10:46:21;;;;;;;;;;;;;;;;;;5091419;28;20277;-82
2023/06/01 10:48:46;;;;;;;;;;;;;;;;;;5093570;28;19916;-81
2023/06/01 10:51:11;;;;;;;;;;;;;;;;;;5081524;28;19916;-82
2023/06/01 10:53:36;;;;;;;;;;;;;;;;;;5086334;28;19917;-81
2023/06/01 10:56:02;;;;;;;;;;;;;;;;;;5086067;28;19925;-81
2023/06/01 10:58:27;;;;;;;;;;;;;;;;;;5077333;28;20011;-84
2023/06/01 11:00:53;;;;;;;;;;;;;;;;;;5081178;28;19912;-84
2023/06/01 11:03:18;;;;;;;;;;;;;;;;;;5073809;28;20385;-82
2023/06/01 11:05:46;;;;;;;;;;;;;;;;;;5062717;28;19989;-83
2023/06/01 11:08:11;;;;;;;;;;;;;;;;;;5087667;28;19923;-83
2023/06/01 11:10:36;;;;;;;;;;;;;;;;;;5073764;28;20367;-82
2023/06/01 11:13:02;;;;;;;;;;;;;;;;;;5087676;28;19922;-83
2023/06/01 11:15:27;;;;;;;;;;;;;;;;;;5065748;28;19913;-83
2023/06/01 11:17:53;;;;;;;;;;;;;;;;;;5062353;28;19968;-82
2023/06/01 11:20:20;;;;;;;;;;;;;;;;;;5082864;28;19935;-81
2023/06/01 11:22:46;;;;;;;;;;;;;;;;;;5074904;28;20337;-82
2023/06/01 11:25:12;;;;;;;;;;;;;;;;;;5084673;28;20287;-83
2023/06/01 11:27:37;;;;;;;;;;;;;;;;;;5078149;28;20714;-84
2023/06/01 11:30:03;;;;;;;;;;;;;;;;;;5070108;28;19955;-83
2023/06/01 11:32:28;;;;;;;;;;;;;;;;;;5094485;28;19916;-82
2023/06/01 11:34:55;;;;;;;;;;;;;;;;;;5057702;28;20026;-82
2023/06/01 11:37:21;;;;;;;;;;;;;;;;;;5085380;28;19921;-82
2023/06/01 11:39:47;;;;;;;;;;;;;;;;;;5068374;28;19923;-82
2023/06/01 11:42:12;;;;;;;;;;;;;;;;;;5081969;28;19916;-83
2023/06/01 11:44:37;;;;;;;;;;;;;;;;;;5070441;28;20394;-83
2023/06/01 11:47:03;;;;;;;;;;;;;;;;;;5063881;28;20338;-81
2023/06/01 11:49:28;;;;;;;;;;;;;;;;;;5077542;28;19912;-82
2023/06/01 11:51:56;;;;;;;;;;;;;;;;;;5101996;28;19920;-82
2023/06/01 11:54:21;;;;;;;;;;;;;;;;;;5075725;28;19913;-82
2023/06/01 11:56:47;;;;;;;;;;;;;;;;;;5077653;28;19928;-81
2023/06/01 11:59:12;;;;;;;;;;;;;;;;;;5052393;28;21311;-82
2023/06/01 12:01:38;;;;;;;;;;;;;;;;;;5041647;28;19975;-80
2023/06/01 12:04:07;;;;;;;;;;;;;;;;;;5083468;28;20163;-82
2023/06/01 12:06:32;;;;;;;;;;;;;;;;;;5070437;28;20303;-83
2023/06/01 12:08:58;;;;;;;;;;;;;;;;;;5088627;28;19919;-82
2023/06/01 12:11:25;;;;;;;;;;;;;;;;;;5080937;28;19928;-81
2023/06/01 12:13:51;;;;;;;;;;;;;;;;;;5068042;28;19913;-82
2023/06/01 12:16:17;;;;;;;;;;;;;;;;;;5088171;28;20378;-82
2023/06/01 12:18:42;;;;;;;;;;;;;;;;;;5077077;28;19916;-82
2023/06/01 12:21:08;;;;;;;;;;;;;;;;;;5081642;28;20025;-80
2023/06/01 12:23:33;;;;;;;;;;;;;;;;;;5090557;28;19916;-82
2023/06/01 12:25:59;;;;;;;;;;;;;;;;;;5091562;28;19968;-83
2023/06/01 12:28:25;;;;;;;;;;;;;;;;;;5092901;28;19924;-82
2023/06/01 12:30:51;;;;;;;;;;;;;;;;;;5073618;28;19923;-83
2023/06/01 12:33:16;;;;;;;;;;;;;;;;;;5074933;28;20382;-82
2023/06/01 12:35:41;;;;;;;;;;;;;;;;;;5073696;28;19985;-81
2023/06/01 12:38:07;;;;;;;;;;;;;;;;;;5059545;28;19928;-82
2023/06/01 12:40:33;;;;;;;;;;;;;;;;;;5092052;28;20417;-82
2023/06/01 12:42:58;;;;;;;;;;;;;;;;;;5091595;28;19912;-81
2023/06/01 12:45:24;;;;;;;;;;;;;;;;;;5089926;28;20301;-82
2023/06/01 12:47:49;;;;;;;;;;;;;;;;;;5092035;28;20352;-82
2023/06/01 12:50:14;;;;;;;;;;;;;;;;;;5073441;28;19916;-81
2023/06/01 12:52:40;;;;;;;;;;;;;;;;;;5082619;28;19919;-82
2023/06/01 12:55:05;;;;;;;;;;;;;;;;;;5073884;28;19946;-83
2023/06/01 12:57:31;;;;;;;;;;;;;;;;;;5090938;28;19951;-82
2023/06/01 12:59:56;;;;;;;;;;;;;;;;;;5091093;28;20372;-84
2023/06/01 13:02:21;;;;;;;;;;;;;;;;;;5091571;28;19912;-81
2023/06/01 13:04:47;;;;;;;;;;;;;;;;;;5092078;28;19916;-80
2023/06/01 13:07:12;;;;;;;;;;;;;;;;;;5091717;28;19925;-82
2023/06/01 13:09:37;;;;;;;;;;;;;;;;;;5091333;28;20011;-81
2023/06/01 13:12:03;;;;;;;;;;;;;;;;;;5091785;28;19912;-83
2023/06/01 13:14:29;;;;;;;;;;;;;;;;;;5091520;28;19916;-81
2023/06/01 13:16:54;;;;;;;;;;;;;;;;;;5092294;28;19923;-80
2023/06/01 13:19:21;;;;;;;;;;;;;;;;;;5072897;28;20435;-82
2023/06/01 13:21:46;;;;;;;;;;;;;;;;;;5077696;28;19954;-83
2023/06/01 13:24:12;;;;;;;;;;;;;;;;;;5074912;28;19963;-82
2023/06/01 13:26:37;;;;;;;;;;;;;;;;;;5091650;28;19976;-80
2023/06/01 13:29:06;;;;;;;;;;;;;;;;;;5090949;28;19916;-80
2023/06/01 13:31:32;;;;;;;;;;;;;;;;;;5088503;28;19919;-83
2023/06/01 13:33:58;;;;;;;;;;;;;;;;;;5073506;28;19960;-81
2023/06/01 13:36:23;;;;;;;;;;;;;;;;;;5091356;28;19947;-80
2023/06/01 13:38:48;;;;;;;;;;;;;;;;;;5090405;28;20061;-82
2023/06/01 13:41:14;;;;;;;;;;;;;;;;;;5091261;28;19916;-80
2023/06/01 13:43:40;;;;;;;;;;;;;;;;;;5072779;28;19916;-82
2023/06/01 13:46:07;;;;;;;;;;;;;;;;;;5073263;28;20011;-82
2023/06/01 13:48:33;;;;;;;;;;;;;;;;;;5084179;28;20431;-82
2023/06/01 13:50:59;;;;;;;;;;;;;;;;;;5091088;28;19998;-82
2023/06/01 13:53:24;;;;;;;;;;;;;;;;;;5090664;28;20337;-82
2023/06/01 13:55:49;;;;;;;;;;;;;;;;;;5090830;28;19927;-82
2023/06/01 13:58:15;;;;;;;;;;;;;;;;;;5090123;28;19931;-80
2023/06/01 14:00:41;;;;;;;;;;;;;;;;;;5090871;28;19912;-81
2023/06/01 14:03:06;;;;;;;;;;;;;;;;;;5090618;28;19920;-81
2023/06/01 14:05:32;;;;;;;;;;;;;;;;;;5091100;28;20356;-81
2023/06/01 14:07:57;;;;;;;;;;;;;;;;;;5069730;28;19920;-81
2023/06/01 14:10:22;;;;;;;;;;;;;;;;;;5080451;28;19912;-80
2023/06/01 14:12:48;;;;;;;;;;;;;;;;;;5090948;28;19974;-80
2023/06/01 14:15:13;;;;;;;;;;;;;;;;;;5090038;28;20870;-81
2023/06/01 14:17:38;;;;;;;;;;;;;;;;;;5093688;28;19976;-83
2023/06/01 14:20:04;;;;;;;;;;;;;;;;;;5090283;28;19919;-80
2023/06/01 14:22:30;;;;;;;;;;;;;;;;;;5092709;28;19923;-81
2023/06/01 14:24:55;;;;;;;;;;;;;;;;;;5076588;28;19912;-80
2023/06/01 14:27:21;;;;;;;;;;;;;;;;;;5093864;28;19916;-82
2023/06/01 14:29:46;;;;;;;;;;;;;;;;;;5094537;28;20015;-81
2023/06/01 14:32:11;;;;;;;;;;;;;;;;;;5093759;28;19930;-81
2023/06/01 14:34:37;;;;;;;;;;;;;;;;;;5091676;28;19958;-81
2023/06/01 14:37:04;;;;;;;;;;;;;;;;;;5094046;28;19923;-82
2023/06/01 14:39:29;;;;;;;;;;;;;;;;;;5093709;28;19920;-82
2023/06/01 14:41:55;;;;;;;;;;;;;;;;;;5094085;28;19916;-82
2023/06/01 14:44:20;;;;;;;;;;;;;;;;;;5093848;28;20334;-83
2023/06/01 14:46:46;;;;;;;;;;;;;;;;;;5094558;28;19916;-83
2023/06/01 14:49:11;;;;;;;;;;;;;;;;;;5078914;28;20356;-83
2023/06/01 14:51:37;;;;;;;;;;;;;;;;;;5093331;28;19965;-80
2023/06/01 14:54:02;;;;;;;;;;;;;;;;;;5093457;28;19918;-80
2023/06/01 14:56:27;;;;;;;;;;;;;;;;;;5093651;28;19920;-80
2023/06/01 14:58:53;;;;;;;;;;;;;;;;;;5078625;28;19927;-81
2023/06/01 15:01:18;;;;;;;;;;;;;;;;;;5093152;28;20456;-81
2023/06/01 15:03:43;;;;;;;;;;;;;;;;;;5093314;28;19916;-81
2023/06/01 15:06:09;;;;;;;;;;;;;;;;;;5081857;28;19923;-81
2023/06/01 15:08:34;;;;;;;;;;;;;;;;;;5093320;28;19957;-82
2023/06/01 15:11:00;;;;;;;;;;;;;;;;;;5093043;28;19916;-80
2023/06/01 15:13:25;;;;;;;;;;;;;;;;;;5084895;28;19967;-81
2023/06/01 15:15:50;;;;;;;;;;;;;;;;;;5092438;28;19916;-82
2023/06/01 15:18:16;;;;;;;;;;;;;;;;;;5064550;28;20430;-81
2023/06/01 15:20:41;;;;;;;;;;;;;;;;;;5087483;28;20291;-83
2023/06/01 15:23:07;;;;;;;;;;;;;;;;;;5092174;28;20306;-82
2023/06/01 15:25:33;;;;;;;;;;;;;;;;;;5079723;28;20393;-84
2023/06/01 15:27:58;;;;;;;;;;;;;;;;;;5094132;28;20379;-83
2023/06/01 15:30:23;;;;;;;;;;;;;;;;;;5093454;28;20362;-81
2023/06/01 15:32:48;;;;;;;;;;;;;;;;;;5090639;28;19911;-79
2023/06/01 15:35:14;;;;;;;;;;;;;;;;;;5093755;28;20390;-80
2023/06/01 15:37:39;;;;;;;;;;;;;;;;;;5100010;28;19920;-81
2023/06/01 15:40:05;;;;;;;;;;;;;;;;;;5077189;28;19981;-79
2023/06/01 15:42:30;;;;;;;;;;;;;;;;;;5083459;28;19958;-78
2023/06/01 15:44:55;;;;;;;;;;;;;;;;;;5067795;28;19993;-79
2023/06/01 15:47:21;;;;;;;;;;;;;;;;;;5070233;28;19919;-82
2023/06/01 15:49:46;;;;;;;;;;;;;;;;;;5092672;28;19921;-80
2023/06/01 15:52:11;;;;;;;;;;;;;;;;;;5092370;28;19955;-80
2023/06/01 15:54:37;;;;;;;;;;;;;;;;;;5074958;28;19920;-80
2023/06/01 15:57:03;;;;;;;;;;;;;;;;;;5071005;28;20281;-79
2023/06/01 15:59:29;;;;;;;;;;;;;;;;;;5086349;28;20018;-80
2023/06/01 16:01:54;;;;;;;;;;;;;;;;;;5092047;28;20010;-80
2023/06/01 16:04:19;;;;;;;;;;;;;;;;;;5091864;28;20382;-80
2023/06/01 16:06:44;;;;;;;;;;;;;;;;;;5080433;28;20039;-82
2023/06/01 16:09:10;;;;;;;;;;;;;;;;;;5065938;28;19966;-79
2023/06/01 16:11:35;;;;;;;;;;;;;;;;;;5075839;28;19912;-83
2023/06/01 16:14:01;;;;;;;;;;;;;;;;;;5094205;28;20318;-84
2023/06/01 16:16:26;;;;;;;;;;;;;;;;;;5091169;28;19912;-84
2023/06/01 16:18:51;;;;;;;;;;;;;;;;;;5065604;28;19920;-83
2023/06/01 16:21:17;;;;;;;;;;;;;;;;;;5067470;28;19920;-83
2023/06/01 16:23:42;;;;;;;;;;;;;;;;;;5068774;28;19918;-84
2023/06/01 16:26:08;;;;;;;;;;;;;;;;;;5071164;28;20275;-84
2023/06/01 16:28:34;;;;;;;;;;;;;;;;;;5077086;28;20342;-82
2023/06/01 16:31:00;;;;;;;;;;;;;;;;;;5075863;28;19952;-84
2023/06/01 16:33:25;;;;;;;;;;;;;;;;;;5085143;28;19962;-84
2023/06/01 16:35:51;;;;;;;;;;;;;;;;;;5094207;28;19916;-85
2023/06/01 16:38:16;;;;;;;;;;;;;;;;;;5086627;28;20414;-84